createdAt,value
2022-08-07T00:01:43.170Z,45.54
2022-08-07T00:05:28.250Z,45.74
2022-08-07T00:09:35.711Z,46.03
2022-08-07T00:13:40.591Z,46.47
2022-08-07T00:17:46.561Z,46.19
2022-08-07T00:21:56.246Z,46.55
2022-08-07T00:26:13.363Z,46.31
2022-08-07T00:30:21.648Z,46.49
2022-08-07T00:34:30.390Z,46.33
2022-08-07T00:38:36.545Z,46.69
2022-08-07T00:42:38.543Z,46.04
2022-08-07T00:46:41.302Z,46.70
2022-08-07T00:50:51.331Z,47.04
2022-08-07T00:54:54.220Z,47.39
2022-08-07T00:58:56.400Z,47.16
2022-08-07T01:02:58.041Z,47.09
2022-08-07T01:06:59.634Z,47.29
2022-08-07T01:11:23.670Z,47.18
2022-08-07T01:16:00.593Z,47.23
2022-08-07T01:19:52.423Z,47.10
2022-08-07T01:23:57.416Z,47.03
2022-08-07T01:27:59.069Z,46.89
2022-08-07T01:32:05.602Z,47.47
2022-08-07T01:36:15.126Z,47.48
2022-08-07T01:40:21.709Z,47.34
2022-08-07T01:44:25.675Z,47.67
2022-08-07T01:48:30.302Z,47.97
2022-08-07T01:52:35.432Z,47.85
2022-08-07T01:56:56.361Z,47.98
2022-08-07T02:01:10.046Z,48.15
2022-08-07T02:05:48.222Z,48.27
2022-08-07T02:09:58.355Z,48.32
2022-08-07T02:14:02.477Z,49.14
2022-08-07T02:18:05.564Z,51.22
2022-08-07T02:22:12.666Z,52.52
2022-08-07T02:26:32.941Z,54.09
2022-08-07T02:30:36.787Z,55.22
2022-08-07T02:34:51.084Z,55.77
2022-08-07T02:38:57.027Z,55.66
2022-08-07T02:42:59.904Z,56.32
2022-08-07T02:47:03.397Z,57.84
2022-08-07T02:51:28.999Z,58.78
2022-08-07T02:56:03.731Z,59.23
2022-08-07T03:00:05.117Z,59.78
2022-08-07T03:04:14.368Z,60.80
2022-08-07T03:08:17.997Z,60.84
2022-08-07T03:12:30.918Z,61.20
2022-08-07T03:16:34.605Z,61.50
2022-08-07T03:20:36.361Z,62.27
2022-08-07T03:24:37.847Z,62.32
2022-08-07T03:28:42.168Z,63.27
2022-08-07T03:32:57.036Z,63.11
2022-08-07T03:37:12.316Z,64.15
2022-08-07T03:41:15.346Z,64.11
2022-08-07T03:45:29.865Z,64.18
2022-08-07T03:49:33.519Z,65.24
2022-08-07T03:54:05.884Z,65.09
2022-08-07T03:59:07.360Z,65.36
2022-08-07T04:02:19.099Z,65.46
2022-08-07T04:06:38.420Z,65.27
2022-08-07T04:10:42.208Z,66.20
2022-08-07T04:14:46.242Z,66.24
2022-08-07T04:18:59.110Z,66.58
2022-08-07T04:23:06.424Z,66.85
2022-08-07T04:27:15.238Z,67.88
2022-08-07T04:31:39.017Z,67.45
2022-08-07T04:35:50.144Z,66.99
2022-08-07T04:39:52.876Z,67.85
2022-08-07T04:44:12.844Z,67.90
2022-08-07T04:48:27.889Z,67.39
2022-08-07T04:52:56.624Z,68.48
2022-08-07T04:58:24.300Z,68.32
2022-08-07T05:01:54.445Z,67.49
2022-08-07T05:06:43.179Z,65.89
2022-08-07T05:10:50.921Z,65.43
2022-08-07T05:15:22.979Z,65.55
2022-08-07T05:19:32.882Z,64.95
2022-08-07T05:23:55.245Z,64.89
2022-08-07T05:28:02.894Z,64.55
2022-08-07T05:32:20.838Z,63.78
2022-08-07T05:36:30.586Z,63.85
2022-08-07T05:40:50.313Z,62.96
2022-08-07T05:45:04.453Z,59.88
2022-08-07T05:49:16.053Z,57.71
2022-08-07T05:54:13.344Z,55.60
2022-08-07T05:57:42.674Z,55.94
2022-08-07T06:01:47.566Z,55.24
2022-08-07T06:05:49.815Z,54.65
2022-08-07T06:10:05.701Z,53.20
2022-08-07T06:14:12.652Z,50.69
2022-08-07T06:18:24.159Z,48.08
2022-08-07T06:22:38.343Z,46.49
2022-08-07T06:26:43.775Z,46.28
2022-08-07T06:30:46.072Z,43.16
2022-08-07T06:34:52.387Z,42.38
2022-08-07T06:38:59.340Z,41.60
2022-08-07T06:43:21.188Z,39.08
2022-08-07T06:47:24.460Z,37.97
2022-08-07T06:51:33.424Z,36.54
2022-08-07T06:56:00.032Z,36.41
2022-08-07T07:00:13.971Z,35.45
2022-08-07T07:04:28.342Z,34.73
2022-08-07T07:08:35.939Z,34.41
2022-08-07T07:12:53.321Z,34.10
2022-08-07T07:16:59.249Z,34.18
2022-08-07T07:21:13.607Z,33.10
2022-08-07T07:26:32.017Z,33.46
2022-08-07T07:30:08.772Z,32.53
2022-08-07T07:34:16.699Z,32.52
2022-08-07T07:38:20.813Z,32.23
2022-08-07T07:42:32.820Z,31.83
2022-08-07T07:46:53.883Z,32.29
2022-08-07T07:50:59.469Z,31.96
2022-08-07T07:55:05.741Z,31.53
2022-08-07T07:59:08.360Z,31.18
2022-08-07T08:03:16.303Z,31.13
2022-08-07T08:07:20.235Z,31.20
2022-08-07T08:11:47.176Z,31.12
2022-08-07T08:15:59.057Z,30.59
2022-08-07T08:20:17.859Z,30.75
2022-08-07T08:24:51.282Z,30.96
2022-08-07T08:29:00.758Z,30.32
2022-08-07T08:33:05.361Z,30.24
2022-08-07T08:38:00.275Z,30.54
2022-08-07T08:41:59.508Z,30.51
2022-08-07T08:46:16.774Z,30.09
2022-08-07T08:50:28.366Z,30.12
2022-08-07T08:54:46.853Z,30.16
2022-08-07T08:59:08.666Z,30.29
2022-08-07T09:03:49.314Z,30.24
2022-08-07T09:08:03.166Z,29.77
2022-08-07T09:12:31.725Z,30.35
2022-08-07T09:16:48.717Z,29.94
2022-08-07T09:21:33.922Z,29.77
2022-08-07T09:25:54.200Z,29.54
2022-08-07T09:30:05.170Z,29.23
2022-08-07T09:34:26.348Z,29.49
2022-08-07T09:38:43.676Z,29.07
2022-08-07T09:43:03.947Z,29.27
2022-08-07T09:48:00.044Z,29.05
2022-08-07T09:52:15.852Z,28.78
2022-08-07T09:56:47.194Z,28.72
2022-08-07T10:01:51.596Z,28.94
2022-08-07T10:06:12.495Z,29.32
2022-08-07T10:10:25.156Z,28.26
2022-08-07T10:15:02.066Z,28.14
2022-08-07T10:19:41.904Z,27.65
2022-08-07T10:24:05.620Z,28.09
2022-08-07T10:28:39.386Z,27.39
2022-08-07T10:33:01.179Z,26.34
2022-08-07T10:37:26.567Z,25.10
2022-08-07T10:42:01.655Z,25.20
2022-08-07T10:46:20.408Z,25.31
2022-08-07T10:50:50.026Z,25.99
2022-08-07T10:55:01.613Z,25.60
2022-08-07T10:59:47.273Z,25.38
2022-08-07T11:04:16.651Z,25.40
2022-08-07T11:08:58.658Z,25.71
2022-08-07T11:13:07.294Z,25.76
2022-08-07T11:17:50.092Z,24.83
2022-08-07T11:22:36.124Z,24.28
2022-08-07T11:27:03.482Z,23.28
2022-08-07T11:31:16.660Z,24.20
2022-08-07T11:35:26.747Z,24.11
2022-08-07T11:40:01.088Z,24.06
2022-08-07T11:44:19.021Z,23.96
2022-08-07T11:49:27.807Z,23.60
2022-08-07T11:53:37.396Z,23.43
2022-08-07T11:58:02.714Z,23.49
2022-08-07T12:02:30.257Z,23.48
2022-08-07T12:06:55.427Z,23.31
2022-08-07T12:11:35.297Z,23.33
2022-08-07T12:16:05.619Z,23.77
2022-08-07T12:20:30.110Z,23.93
2022-08-07T12:25:07.763Z,23.14
2022-08-07T12:29:20.390Z,23.69
2022-08-07T12:34:00.642Z,23.15
2022-08-07T12:38:09.066Z,23.89
2022-08-07T12:42:13.543Z,24.16
2022-08-07T12:46:16.071Z,23.20
2022-08-07T12:50:49.467Z,23.56
2022-08-07T12:55:03.690Z,23.25
2022-08-07T12:59:08.598Z,22.59
2022-08-07T13:03:54.775Z,22.61
2022-08-07T13:08:11.855Z,22.38
2022-08-07T13:12:27.681Z,21.92
2022-08-07T13:16:50.716Z,21.92
2022-08-07T13:21:10.129Z,22.96
2022-08-07T13:25:24.222Z,23.52
2022-08-07T13:29:46.891Z,23.40
2022-08-07T13:34:32.034Z,23.28
2022-08-07T13:38:28.692Z,23.22
2022-08-07T13:42:39.215Z,23.88
2022-08-07T13:46:49.418Z,23.07
2022-08-07T13:51:00.526Z,23.33
2022-08-07T13:55:19.093Z,23.51
2022-08-07T13:59:25.482Z,23.05
2022-08-07T14:04:06.835Z,22.92
2022-08-07T14:08:00.231Z,22.51
2022-08-07T14:12:10.411Z,23.65
2022-08-07T14:16:17.355Z,23.29
2022-08-07T14:20:43.456Z,23.57
2022-08-07T14:24:51.328Z,22.67
2022-08-07T14:28:57.424Z,21.59
2022-08-07T14:33:04.713Z,22.52
2022-08-07T14:37:16.336Z,23.23
2022-08-07T14:41:33.903Z,23.03
2022-08-07T14:45:57.098Z,23.48
2022-08-07T14:49:59.558Z,23.38
2022-08-07T14:58:31.290Z,23.41
2022-08-07T15:02:37.139Z,22.82
2022-08-07T15:06:40.218Z,22.35
2022-08-07T15:10:59.142Z,22.46
2022-08-07T15:15:09.289Z,22.77
2022-08-07T15:20:31.835Z,22.64
2022-08-07T15:25:15.315Z,22.71
2022-08-07T15:28:35.116Z,22.94
2022-08-07T15:32:50.760Z,22.49
2022-08-07T15:37:06.842Z,22.82
2022-08-07T15:45:58.224Z,22.29
2022-08-07T15:50:06.710Z,22.05
2022-08-07T15:54:12.219Z,20.93
2022-08-07T15:58:20.749Z,21.74
2022-08-07T16:02:46.594Z,22.02
2022-08-07T16:06:52.646Z,21.52
2022-08-07T16:11:02.559Z,21.60
2022-08-07T16:15:07.096Z,21.18
2022-08-07T16:19:41.746Z,21.33
2022-08-07T16:23:53.863Z,21.07
2022-08-07T16:28:43.468Z,21.12
2022-08-07T16:32:54.662Z,21.25
2022-08-07T16:38:02.997Z,22.00
2022-08-07T16:41:59.968Z,23.39
2022-08-07T16:47:06.815Z,23.36
2022-08-07T16:51:20.483Z,24.27
2022-08-07T16:55:47.355Z,24.11
2022-08-07T17:00:00.977Z,23.83
2022-08-07T17:04:24.611Z,24.31
2022-08-07T17:09:13.895Z,25.35
2022-08-07T17:13:41.407Z,26.55
2022-08-07T17:18:28.161Z,25.56
2022-08-07T17:22:38.830Z,27.77
2022-08-07T17:27:00.137Z,27.17
2022-08-07T17:31:17.805Z,26.67
2022-08-07T17:35:49.743Z,26.56
2022-08-07T17:40:14.676Z,28.84
2022-08-07T17:44:41.399Z,28.97
2022-08-07T17:49:00.011Z,29.91
2022-08-07T17:53:59.601Z,29.31
2022-08-07T17:57:58.711Z,28.46
2022-08-07T18:02:56.437Z,29.17
2022-08-07T18:07:20.851Z,28.71
2022-08-07T18:12:17.988Z,28.19
2022-08-07T18:16:12.714Z,29.41
2022-08-07T18:21:12.557Z,28.46
2022-08-07T18:24:51.058Z,28.55
2022-08-07T18:30:07.038Z,30.28
2022-08-07T18:34:06.243Z,29.45
2022-08-07T18:38:55.358Z,29.28
2022-08-07T18:43:09.074Z,30.53
2022-08-07T18:47:23.544Z,31.58
2022-08-07T18:52:34.935Z,30.79
2022-08-07T18:56:06.108Z,31.47
2022-08-07T19:00:32.730Z,30.88
2022-08-07T19:04:57.855Z,32.40
2022-08-07T19:09:56.403Z,33.19
2022-08-07T19:14:20.319Z,34.87
2022-08-07T19:18:35.040Z,36.08
2022-08-07T19:23:18.655Z,36.01
2022-08-07T19:28:56.833Z,36.66
2022-08-07T19:32:10.894Z,36.27
2022-08-07T19:36:15.546Z,37.75
2022-08-07T19:40:38.536Z,38.83
2022-08-07T19:44:56.701Z,39.27
2022-08-07T19:49:05.513Z,39.19
2022-08-07T19:54:31.744Z,39.78
2022-08-07T19:58:03.350Z,39.96
2022-08-07T20:02:05.328Z,40.53
2022-08-07T20:06:15.232Z,41.20
2022-08-07T20:10:35.847Z,40.97
2022-08-07T20:14:53.903Z,43.32
2022-08-07T20:19:02.359Z,42.94
2022-08-07T20:23:33.045Z,43.08
2022-08-07T20:27:47.433Z,43.80
2022-08-07T20:31:51.014Z,43.25
2022-08-07T20:36:03.085Z,43.70
2022-08-07T20:40:33.149Z,44.32
2022-08-07T20:44:35.343Z,44.72
2022-08-07T20:48:57.874Z,44.70
2022-08-07T20:53:01.641Z,45.00
2022-08-07T20:57:08.341Z,45.57
2022-08-07T21:01:19.815Z,44.62
2022-08-07T21:05:25.718Z,44.70
2022-08-07T21:09:52.723Z,45.02
2022-08-07T21:14:31.794Z,45.50
2022-08-07T21:18:41.238Z,45.97
2022-08-07T21:22:53.556Z,45.39
2022-08-07T21:27:01.574Z,45.97
2022-08-07T21:31:18.169Z,46.69
2022-08-07T21:36:04.799Z,47.19
2022-08-07T21:40:18.845Z,47.98
2022-08-07T21:44:36.289Z,48.31
2022-08-07T21:48:42.551Z,48.99
2022-08-07T21:53:07.835Z,48.71
2022-08-07T21:57:40.090Z,49.07
2022-08-07T22:02:10.123Z,50.23
2022-08-07T22:06:29.974Z,49.73
2022-08-07T22:10:35.460Z,49.61
2022-08-07T22:15:03.337Z,49.18
2022-08-07T22:20:01.128Z,49.81
2022-08-07T22:24:32.828Z,50.20
2022-08-07T22:28:52.897Z,50.34
2022-08-07T22:33:09.324Z,50.78
2022-08-07T22:37:27.603Z,50.95
2022-08-07T22:42:25.911Z,51.50
2022-08-07T22:47:08.849Z,51.38
2022-08-07T22:51:37.141Z,52.86
2022-08-07T22:55:49.955Z,53.27
2022-08-07T22:59:56.753Z,53.84
2022-08-07T23:04:20.033Z,54.16
2022-08-07T23:10:03.849Z,53.53
2022-08-07T23:14:10.607Z,54.50
2022-08-07T23:18:42.442Z,55.12
2022-08-07T23:23:11.081Z,55.62
2022-08-07T23:28:20.386Z,54.67
2022-08-07T23:37:19.416Z,53.82
2022-08-07T23:41:47.499Z,52.32
2022-08-07T23:46:30.933Z,50.63
2022-08-07T23:50:38.673Z,50.56
2022-08-07T23:54:52.060Z,52.02
2022-08-07T23:59:10.858Z,49.92
